createdAt,value
2022-12-15T00:02:19.533Z,7.96
2022-12-15T00:05:05.609Z,7.85
2022-12-15T00:07:51.824Z,7.81
2022-12-15T00:10:37.939Z,7.71
2022-12-15T00:13:29.820Z,7.73
2022-12-15T00:16:15.719Z,7.66
2022-12-15T00:19:01.397Z,7.61
2022-12-15T00:21:47.785Z,7.64
2022-12-15T00:24:33.089Z,7.60
2022-12-15T00:27:18.474Z,7.59
2022-12-15T00:30:04.409Z,7.57
2022-12-15T00:32:49.984Z,7.57
2022-12-15T00:35:35.577Z,7.56
2022-12-15T00:38:31.798Z,7.56
2022-12-15T00:40:59.750Z,7.50
2022-12-15T00:43:32.217Z,7.62
2022-12-15T00:46:19.427Z,7.57
2022-12-15T00:48:47.402Z,7.58
2022-12-15T00:51:14.657Z,7.62
2022-12-15T00:54:01.017Z,7.69
2022-12-15T00:56:46.570Z,7.73
2022-12-15T00:59:32.977Z,7.81
2022-12-15T01:02:19.115Z,7.90
2022-12-15T01:05:04.476Z,7.96
2022-12-15T01:07:50.231Z,8.03
2022-12-15T01:10:37.096Z,8.06
2022-12-15T01:13:23.693Z,8.03
2022-12-15T01:16:09.317Z,8.04
2022-12-15T01:18:55.069Z,8.07
2022-12-15T01:21:25.260Z,8.13
2022-12-15T01:23:53.181Z,8.19
2022-12-15T01:26:20.358Z,8.26
2022-12-15T01:28:47.299Z,8.29
2022-12-15T01:31:14.821Z,8.30
2022-12-15T01:33:43.898Z,8.34
2022-12-15T01:36:12.027Z,8.38
2022-12-15T01:38:39.108Z,8.40
2022-12-15T01:41:10.516Z,8.43
2022-12-15T01:43:40.041Z,8.41
2022-12-15T01:46:10.148Z,8.44
2022-12-15T01:49:16.442Z,8.46
2022-12-15T01:51:48.607Z,8.49
2022-12-15T01:54:21.080Z,8.52
2022-12-15T01:56:52.736Z,8.51
2022-12-15T01:59:25.169Z,8.52
2022-12-15T02:01:52.128Z,8.47
2022-12-15T02:04:22.943Z,8.43
2022-12-15T02:06:50.711Z,8.45
2022-12-15T02:09:18.830Z,8.45
2022-12-15T02:12:19.439Z,8.44
2022-12-15T02:15:23.642Z,8.41
2022-12-15T02:18:23.192Z,8.37
2022-12-15T02:20:59.017Z,8.36
2022-12-15T02:23:44.450Z,8.39
2022-12-15T02:26:42.270Z,8.39
2022-12-15T02:29:18.061Z,8.40
2022-12-15T02:32:31.691Z,8.38
2022-12-15T02:35:08.352Z,8.37
2022-12-15T02:37:40.432Z,8.39
2022-12-15T02:40:10.306Z,8.44
2022-12-15T02:42:45.707Z,8.45
2022-12-15T02:45:16.934Z,8.50
2022-12-15T02:47:58.475Z,8.49
2022-12-15T02:50:50.236Z,8.57
2022-12-15T02:53:26.472Z,8.56
2022-12-15T02:56:13.638Z,8.57
2022-12-15T02:58:53.932Z,8.57
2022-12-15T03:01:30.135Z,8.58
2022-12-15T03:04:00.026Z,8.59
2022-12-15T03:06:27.363Z,8.58
2022-12-15T03:08:54.221Z,8.58
2022-12-15T03:11:21.124Z,8.51
2022-12-15T03:27:17.321Z,8.13
2022-12-15T03:29:44.326Z,8.17
2022-12-15T03:32:11.223Z,8.16
2022-12-15T03:34:38.255Z,8.16
2022-12-15T03:37:05.109Z,8.15
2022-12-15T03:39:32.099Z,8.16
2022-12-15T03:41:58.884Z,8.21
2022-12-15T03:44:26.033Z,8.18
2022-12-15T03:46:52.836Z,8.20
2022-12-15T03:49:19.895Z,8.28
2022-12-15T03:51:46.865Z,8.23
2022-12-15T03:54:14.369Z,8.21
2022-12-15T03:56:41.255Z,8.17
2022-12-15T03:59:08.338Z,8.12
2022-12-15T04:01:36.905Z,8.13
2022-12-15T04:04:05.185Z,8.11
2022-12-15T04:06:32.241Z,8.05
2022-12-15T04:08:59.173Z,8.06
2022-12-15T04:11:26.122Z,8.02
2022-12-15T04:13:52.969Z,8.09
2022-12-15T04:16:20.598Z,8.07
2022-12-15T04:19:08.278Z,8.05
2022-12-15T04:21:35.531Z,8.08
2022-12-15T04:24:20.852Z,8.06
2022-12-15T04:27:06.754Z,8.13
2022-12-15T04:29:52.072Z,8.08
2022-12-15T04:32:37.916Z,8.10
2022-12-15T04:35:23.776Z,8.07
2022-12-15T04:38:09.795Z,8.06
2022-12-15T04:40:55.579Z,8.07
2022-12-15T04:43:40.819Z,8.07
2022-12-15T04:46:26.559Z,8.15
2022-12-15T04:49:11.981Z,8.08
2022-12-15T04:51:57.690Z,8.06
2022-12-15T04:54:43.453Z,8.01
2022-12-15T04:57:29.389Z,8.02
2022-12-15T05:00:14.901Z,7.97
2022-12-15T05:02:59.912Z,7.94
2022-12-15T05:05:45.622Z,7.98
2022-12-15T05:08:31.432Z,7.94
2022-12-15T05:11:18.863Z,8.02
2022-12-15T05:14:04.530Z,8.00
2022-12-15T05:16:49.805Z,7.91
2022-12-15T05:19:35.389Z,7.91
2022-12-15T05:22:21.148Z,7.93
2022-12-15T05:25:06.300Z,7.85
2022-12-15T05:27:52.243Z,7.84
2022-12-15T05:30:37.746Z,7.83
2022-12-15T05:33:05.332Z,7.87
2022-12-15T05:35:32.310Z,7.92
2022-12-15T05:37:59.286Z,7.91
2022-12-15T05:40:26.061Z,7.97
2022-12-15T05:42:52.872Z,8.04
2022-12-15T05:45:21.327Z,8.09
2022-12-15T05:47:52.049Z,8.09
2022-12-15T05:50:19.432Z,8.12
2022-12-15T05:52:49.489Z,8.12
2022-12-15T05:55:17.454Z,8.19
2022-12-15T05:57:44.561Z,8.10
2022-12-15T06:00:11.787Z,8.07
2022-12-15T06:02:38.754Z,8.08
2022-12-15T06:05:06.191Z,8.08
2022-12-15T06:07:34.063Z,8.10
2022-12-15T06:10:01.051Z,8.14
2022-12-15T06:12:28.952Z,8.21
2022-12-15T06:14:55.846Z,8.18
2022-12-15T06:17:23.297Z,8.07
2022-12-15T06:19:50.290Z,8.14
2022-12-15T06:22:17.339Z,8.26
2022-12-15T06:24:44.158Z,8.31
2022-12-15T06:27:11.119Z,8.30
2022-12-15T06:29:38.031Z,8.29
2022-12-15T06:32:05.094Z,8.29
2022-12-15T06:34:31.986Z,8.27
2022-12-15T06:37:00.429Z,8.25
2022-12-15T06:39:27.359Z,8.41
2022-12-15T06:41:54.195Z,8.50
2022-12-15T06:44:21.366Z,8.49
2022-12-15T06:46:48.467Z,8.51
2022-12-15T06:49:15.328Z,8.61
2022-12-15T06:51:44.134Z,8.78
2022-12-15T06:54:11.343Z,8.91
2022-12-15T06:56:39.299Z,8.90
2022-12-15T06:59:07.741Z,8.86
2022-12-15T07:01:35.261Z,9.00
2022-12-15T07:04:04.519Z,8.91
2022-12-15T07:06:38.762Z,9.05
2022-12-15T07:09:08.087Z,9.07
2022-12-15T07:11:35.718Z,9.21
2022-12-15T07:14:03.229Z,9.32
2022-12-15T07:16:31.298Z,9.36
2022-12-15T07:18:58.493Z,9.34
2022-12-15T07:21:25.442Z,9.34
2022-12-15T07:23:55.891Z,9.19
2022-12-15T07:26:24.411Z,9.19
2022-12-15T07:28:51.264Z,9.10
2022-12-15T07:31:18.326Z,9.03
2022-12-15T07:33:45.673Z,9.18
2022-12-15T07:36:13.310Z,9.22
2022-12-15T07:38:40.275Z,9.06
2022-12-15T07:41:09.597Z,9.13
2022-12-15T07:43:37.613Z,8.85
2022-12-15T07:46:05.682Z,9.00
2022-12-15T07:48:33.432Z,8.89
2022-12-15T07:51:15.147Z,9.04
2022-12-15T07:53:44.566Z,8.91
2022-12-15T07:56:11.428Z,8.87
2022-12-15T07:58:38.951Z,8.96
2022-12-15T08:01:07.992Z,9.13
2022-12-15T08:03:36.624Z,9.19
2022-12-15T08:06:10.141Z,9.08
2022-12-15T08:08:37.510Z,9.15
2022-12-15T08:11:08.846Z,9.37
2022-12-15T08:16:23.893Z,9.55
2022-12-15T08:18:50.868Z,9.99
2022-12-15T08:21:17.823Z,10.06
2022-12-15T08:23:45.120Z,10.07
2022-12-15T08:26:14.690Z,10.38
2022-12-15T08:28:43.076Z,10.32
2022-12-15T08:31:17.053Z,10.59
2022-12-15T08:33:45.030Z,10.88
2022-12-15T08:36:14.206Z,10.79
2022-12-15T08:38:42.599Z,11.17
2022-12-15T08:41:17.311Z,12.17
2022-12-15T08:43:48.576Z,12.72
2022-12-15T08:46:21.793Z,12.58
2022-12-15T08:48:49.629Z,12.19
2022-12-15T08:51:17.117Z,12.47
2022-12-15T08:53:44.293Z,12.56
2022-12-15T08:56:17.324Z,13.15
2022-12-15T08:58:45.814Z,13.07
2022-12-15T09:01:22.369Z,14.15
2022-12-15T09:03:51.833Z,14.10
2022-12-15T09:06:22.257Z,13.69
2022-12-15T09:08:50.582Z,12.94
2022-12-15T09:11:18.057Z,12.49
2022-12-15T09:13:44.968Z,12.17
2022-12-15T09:16:15.718Z,11.51
2022-12-15T09:18:44.636Z,11.26
2022-12-15T09:21:12.475Z,11.01
2022-12-15T09:23:39.930Z,11.01
2022-12-15T09:26:09.990Z,10.91
2022-12-15T09:28:40.580Z,10.89
2022-12-15T09:31:16.003Z,10.51
2022-12-15T09:33:44.481Z,10.27
2022-12-15T09:36:13.365Z,10.16
2022-12-15T09:38:41.855Z,9.98
2022-12-15T09:41:17.715Z,10.09
2022-12-15T09:43:47.739Z,10.11
2022-12-15T09:46:27.423Z,10.50
2022-12-15T09:48:58.458Z,10.66
2022-12-15T09:51:43.708Z,10.37
2022-12-15T09:54:11.870Z,10.40
2022-12-15T09:56:50.024Z,10.33
2022-12-15T09:59:49.419Z,10.45
2022-12-15T10:02:21.442Z,10.93
2022-12-15T10:05:13.537Z,11.10
2022-12-15T10:07:46.446Z,10.97
2022-12-15T10:10:31.087Z,11.76
2022-12-15T10:13:05.381Z,11.88
2022-12-15T10:15:41.120Z,11.52
2022-12-15T10:18:20.868Z,11.18
2022-12-15T10:20:48.542Z,10.70
2022-12-15T10:23:18.323Z,10.92
2022-12-15T10:26:19.286Z,11.39
2022-12-15T10:29:15.259Z,12.47
2022-12-15T10:31:55.813Z,14.11
2022-12-15T10:34:27.752Z,15.47
2022-12-15T10:36:56.438Z,16.21
2022-12-15T10:39:24.589Z,17.13
2022-12-15T10:42:13.697Z,18.17
2022-12-15T10:44:43.876Z,18.23
2022-12-15T10:47:23.375Z,18.92
2022-12-15T10:49:51.053Z,17.65
2022-12-15T10:52:23.814Z,17.38
2022-12-15T10:54:53.388Z,17.31
2022-12-15T10:57:34.671Z,17.28
2022-12-15T11:00:13.536Z,18.84
2022-12-15T11:02:42.274Z,18.50
2022-12-15T11:05:16.062Z,21.21
2022-12-15T11:07:48.509Z,20.48
2022-12-15T11:10:23.014Z,20.62
2022-12-15T11:13:10.516Z,20.40
2022-12-15T11:15:44.175Z,22.74
2022-12-15T11:18:24.815Z,24.25
2022-12-15T11:21:02.028Z,23.88
2022-12-15T11:23:53.728Z,24.57
2022-12-15T11:26:44.643Z,24.14
2022-12-15T11:29:43.257Z,26.63
2022-12-15T11:32:13.148Z,21.40
2022-12-15T11:34:44.876Z,21.34
2022-12-15T11:37:34.514Z,22.77
2022-12-15T11:40:30.849Z,22.35
2022-12-15T11:43:06.714Z,20.91
2022-12-15T11:45:36.287Z,22.21
2022-12-15T11:48:11.299Z,24.17
2022-12-15T11:50:57.188Z,23.21
2022-12-15T11:53:39.237Z,21.32
2022-12-15T11:56:28.024Z,20.21
2022-12-15T11:59:36.518Z,17.58
2022-12-15T12:02:34.229Z,17.56
2022-12-15T12:05:26.756Z,17.74
2022-12-15T12:08:29.800Z,17.88
2022-12-15T12:11:15.233Z,17.21
2022-12-15T12:14:19.594Z,17.71
2022-12-15T12:16:52.371Z,18.69
2022-12-15T12:19:35.224Z,18.72
2022-12-15T12:22:26.079Z,19.56
2022-12-15T12:25:11.001Z,17.98
2022-12-15T12:27:50.386Z,17.41
2022-12-15T12:30:23.753Z,16.80
2022-12-15T12:33:02.757Z,14.03
2022-12-15T12:35:49.875Z,12.57
2022-12-15T12:38:24.499Z,11.73
2022-12-15T12:41:28.490Z,10.89
2022-12-15T12:44:00.771Z,10.48
2022-12-15T12:46:30.518Z,9.74
2022-12-15T12:49:06.590Z,9.62
2022-12-15T12:51:40.341Z,9.44
2022-12-15T12:54:34.899Z,9.60
2022-12-15T12:57:22.070Z,9.42
2022-12-15T12:59:52.011Z,9.24
2022-12-15T13:02:21.933Z,9.16
2022-12-15T13:04:57.962Z,9.11
2022-12-15T13:07:32.393Z,9.01
2022-12-15T13:10:08.226Z,8.93
2022-12-15T13:13:15.577Z,8.78
2022-12-15T13:15:51.040Z,8.73
2022-12-15T13:18:22.647Z,8.82
2022-12-15T13:20:55.132Z,8.75
2022-12-15T13:23:21.916Z,8.84
2022-12-15T13:25:57.914Z,8.60
2022-12-15T13:28:42.711Z,8.58
2022-12-15T13:31:21.907Z,8.49
2022-12-15T13:33:54.865Z,8.33
2022-12-15T13:36:40.006Z,8.20
2022-12-15T13:39:12.998Z,8.19
2022-12-15T13:42:31.731Z,8.16
2022-12-15T13:44:45.395Z,8.04
2022-12-15T13:47:22.189Z,7.98
2022-12-15T13:50:01.353Z,7.95
2022-12-15T13:55:37.279Z,7.94
2022-12-15T13:58:14.684Z,7.88
2022-12-15T14:00:53.302Z,7.73
2022-12-15T14:03:20.819Z,7.60
2022-12-15T14:05:53.572Z,7.62
2022-12-15T14:08:23.184Z,7.47
2022-12-15T14:11:00.017Z,7.30
2022-12-15T14:13:34.381Z,7.20
2022-12-15T14:16:15.530Z,7.19
2022-12-15T14:18:43.255Z,7.04
2022-12-15T14:21:26.954Z,6.85
2022-12-15T14:24:36.468Z,6.79
2022-12-15T14:26:42.449Z,6.80
2022-12-15T14:29:10.121Z,6.79
2022-12-15T14:31:37.657Z,6.63
2022-12-15T14:34:33.315Z,6.59
2022-12-15T14:37:03.940Z,6.49
2022-12-15T14:39:40.100Z,6.47
2022-12-15T14:42:07.939Z,6.35
2022-12-15T14:44:42.835Z,6.23
2022-12-15T14:47:29.056Z,6.18
2022-12-15T14:49:58.083Z,6.18
2022-12-15T14:52:37.159Z,6.16
2022-12-15T14:55:32.329Z,6.11
2022-12-15T14:57:59.593Z,6.02
2022-12-15T15:00:32.377Z,5.90
2022-12-15T15:03:18.342Z,5.94
2022-12-15T15:06:29.449Z,5.94
2022-12-15T15:08:56.560Z,5.80
2022-12-15T15:11:35.463Z,5.79
2022-12-15T15:14:17.135Z,5.80
2022-12-15T15:29:38.486Z,5.22
2022-12-15T15:32:07.886Z,5.32
2022-12-15T15:34:34.801Z,5.32
2022-12-15T15:37:03.268Z,5.41
2022-12-15T15:39:30.095Z,5.47
2022-12-15T15:41:57.148Z,5.54
2022-12-15T15:44:23.983Z,5.56
2022-12-15T15:46:52.404Z,5.51
2022-12-15T15:49:21.735Z,5.46
2022-12-15T15:51:49.223Z,5.52
2022-12-15T15:54:23.633Z,5.56
2022-12-15T15:56:50.580Z,5.53
2022-12-15T15:59:20.996Z,5.41
2022-12-15T16:01:54.816Z,5.39
2022-12-15T16:04:23.479Z,5.43
2022-12-15T16:06:51.933Z,5.46
2022-12-15T16:09:19.125Z,5.53
2022-12-15T16:11:46.766Z,5.47
2022-12-15T16:14:16.369Z,5.44
2022-12-15T16:16:43.726Z,5.49
2022-12-15T16:19:12.283Z,5.35
2022-12-15T16:21:40.398Z,5.32
2022-12-15T16:24:15.783Z,5.35
2022-12-15T16:26:48.025Z,5.40
2022-12-15T16:29:16.826Z,5.31
2022-12-15T16:31:46.814Z,5.29
2022-12-15T16:34:16.620Z,5.33
2022-12-15T16:36:44.872Z,5.30
2022-12-15T16:39:25.474Z,5.26
2022-12-15T16:41:54.214Z,5.32
2022-12-15T16:44:22.551Z,5.35
2022-12-15T16:46:49.417Z,5.15
2022-12-15T16:49:16.353Z,5.08
2022-12-15T16:51:48.191Z,5.05
2022-12-15T16:54:27.336Z,5.02
2022-12-15T16:56:57.012Z,5.12
2022-12-15T16:59:33.432Z,5.01
2022-12-15T17:02:01.421Z,5.03
2022-12-15T17:04:28.433Z,5.05
2022-12-15T17:06:55.405Z,5.04
2022-12-15T17:09:25.515Z,5.05
2022-12-15T17:11:52.891Z,5.10
2022-12-15T17:14:19.770Z,5.03
2022-12-15T17:16:46.671Z,4.91
2022-12-15T17:19:19.228Z,4.86
2022-12-15T17:21:53.594Z,4.84
2022-12-15T17:24:22.508Z,4.80
2022-12-15T17:26:50.052Z,4.86
2022-12-15T17:29:20.677Z,4.93
2022-12-15T17:31:47.745Z,4.95
2022-12-15T17:34:30.890Z,5.05
2022-12-15T17:37:00.013Z,5.10
2022-12-15T17:39:27.944Z,5.18
2022-12-15T17:42:00.435Z,5.23
2022-12-15T17:44:33.448Z,5.15
2022-12-15T17:47:02.186Z,5.18
2022-12-15T17:49:35.128Z,5.22
2022-12-15T17:52:05.309Z,5.12
2022-12-15T17:54:32.354Z,5.15
2022-12-15T17:56:59.224Z,5.14
2022-12-15T17:59:26.071Z,5.02
2022-12-15T18:01:53.133Z,5.08
2022-12-15T18:04:20.057Z,4.99
2022-12-15T18:06:47.055Z,4.76
2022-12-15T18:09:16.573Z,4.73
2022-12-15T18:11:46.699Z,4.76
2022-12-15T18:14:19.283Z,4.75
2022-12-15T18:16:46.842Z,4.81
2022-12-15T18:19:14.057Z,4.82
2022-12-15T18:21:41.308Z,4.85
2022-12-15T18:24:17.544Z,4.88
2022-12-15T18:26:44.580Z,4.85
2022-12-15T18:29:18.199Z,4.79
2022-12-15T18:31:49.507Z,4.85
2022-12-15T18:34:21.427Z,4.88
2022-12-15T18:36:48.450Z,4.89
2022-12-15T18:39:15.503Z,4.90
2022-12-15T18:41:42.446Z,4.96
2022-12-15T18:44:19.162Z,4.90
2022-12-15T18:46:48.142Z,4.90
2022-12-15T18:49:15.657Z,4.96
2022-12-15T18:51:42.736Z,4.89
2022-12-15T18:54:21.625Z,5.00
2022-12-15T18:56:48.584Z,4.92
2022-12-15T18:59:17.569Z,4.98
2022-12-15T19:01:46.373Z,5.10
2022-12-15T19:04:14.081Z,5.02
2022-12-15T19:06:41.408Z,5.02
2022-12-15T19:09:15.848Z,5.02
2022-12-15T19:12:03.881Z,4.99
2022-12-15T19:14:43.225Z,5.07
2022-12-15T19:17:30.683Z,5.12
2022-12-15T19:20:16.119Z,5.09
2022-12-15T19:22:44.443Z,5.03
2022-12-15T19:25:30.308Z,5.00
2022-12-15T19:27:59.823Z,4.94
2022-12-15T19:30:29.966Z,4.82
2022-12-15T19:32:56.997Z,4.85
2022-12-15T19:35:24.945Z,4.81
2022-12-15T19:37:55.300Z,4.78
2022-12-15T19:40:30.419Z,4.70
2022-12-15T19:42:58.962Z,4.64
2022-12-15T19:45:28.506Z,4.67
2022-12-15T19:47:55.647Z,4.62
2022-12-15T19:50:36.378Z,4.53
2022-12-15T19:53:11.272Z,4.50
2022-12-15T19:55:38.909Z,4.49
2022-12-15T19:58:28.156Z,4.47
2022-12-15T20:00:58.316Z,4.44
2022-12-15T20:03:26.325Z,4.44
2022-12-15T20:05:55.582Z,4.49
2022-12-15T20:08:26.221Z,4.42
2022-12-15T20:10:54.790Z,4.36
2022-12-15T20:13:22.204Z,4.34
2022-12-15T20:15:49.245Z,4.38
2022-12-15T20:18:16.268Z,4.24
2022-12-15T20:20:45.667Z,4.21
2022-12-15T20:23:27.877Z,4.22
2022-12-15T20:25:56.274Z,4.25
2022-12-15T20:28:26.027Z,4.19
2022-12-15T20:30:53.650Z,4.30
2022-12-15T20:33:21.046Z,4.28
2022-12-15T20:35:50.483Z,4.32
2022-12-15T20:38:33.861Z,4.33
2022-12-15T20:41:02.191Z,4.08
2022-12-15T20:43:31.787Z,4.14
2022-12-15T20:46:16.809Z,4.11
2022-12-15T20:48:44.888Z,4.14
2022-12-15T20:51:21.156Z,4.18
2022-12-15T20:53:48.484Z,4.25
2022-12-15T20:56:15.389Z,4.11
2022-12-15T20:58:43.158Z,4.08
2022-12-15T21:01:18.691Z,4.06
2022-12-15T21:03:46.993Z,4.08
2022-12-15T21:06:14.781Z,4.15
2022-12-15T21:08:42.077Z,4.13
2022-12-15T21:11:18.630Z,4.14
2022-12-15T21:13:47.227Z,4.16
2022-12-15T21:16:20.069Z,4.27
2022-12-15T21:19:18.783Z,4.37
2022-12-15T21:21:39.011Z,4.26
2022-12-15T21:24:22.965Z,4.31
2022-12-15T21:26:50.678Z,4.38
2022-12-15T21:29:28.785Z,4.19
2022-12-15T21:31:55.665Z,4.29
2022-12-15T21:34:22.721Z,4.30
2022-12-15T21:36:54.764Z,4.31
2022-12-15T21:39:25.715Z,4.08
2022-12-15T21:41:52.666Z,4.07
2022-12-15T21:44:22.143Z,4.09
2022-12-15T21:46:49.111Z,4.00
2022-12-15T21:49:18.834Z,3.96
2022-12-15T21:51:57.642Z,4.07
2022-12-15T21:54:30.950Z,4.00
2022-12-15T21:56:59.793Z,3.96
2022-12-15T21:59:29.410Z,4.02
2022-12-15T22:01:56.489Z,3.95
2022-12-15T22:04:26.870Z,3.92
2022-12-15T22:06:53.747Z,3.93
2022-12-15T22:09:21.852Z,3.97
2022-12-15T22:11:55.382Z,4.02
2022-12-15T22:14:26.119Z,4.01
2022-12-15T22:16:53.816Z,4.04
2022-12-15T22:19:22.309Z,4.09
2022-12-15T22:21:49.293Z,4.10
2022-12-15T22:24:16.238Z,4.11
2022-12-15T22:26:43.322Z,4.16
2022-12-15T22:29:37.752Z,4.11
2022-12-15T22:32:12.912Z,4.10
2022-12-15T22:34:39.780Z,4.03
2022-12-15T22:37:06.706Z,4.15
2022-12-15T22:39:33.926Z,4.14
2022-12-15T22:42:01.562Z,4.02
2022-12-15T22:44:32.537Z,4.07
2022-12-15T22:47:01.923Z,4.10
2022-12-15T22:49:39.633Z,4.14
2022-12-15T22:52:16.301Z,4.09
2022-12-15T22:54:45.652Z,4.07
2022-12-15T22:57:29.497Z,4.12
2022-12-15T23:00:05.803Z,4.16
2022-12-15T23:02:35.723Z,4.24
2022-12-15T23:05:04.005Z,4.26
2022-12-15T23:07:31.461Z,4.22
2022-12-15T23:10:16.435Z,4.30
2022-12-15T23:12:43.691Z,4.32
2022-12-15T23:15:29.397Z,4.37
2022-12-15T23:17:56.344Z,4.32
2022-12-15T23:20:23.225Z,4.45
2022-12-15T23:22:50.178Z,4.49
2022-12-15T23:25:16.985Z,4.54
2022-12-15T23:27:44.024Z,4.50
2022-12-15T23:30:12.888Z,4.54
2022-12-15T23:32:39.801Z,4.55
2022-12-15T23:35:07.489Z,4.61
2022-12-15T23:37:35.184Z,4.49
2022-12-15T23:40:02.038Z,4.44
2022-12-15T23:42:28.839Z,4.46
2022-12-15T23:44:55.794Z,4.48
2022-12-15T23:47:22.760Z,4.55
2022-12-15T23:49:49.878Z,4.59
2022-12-15T23:52:18.405Z,4.65
2022-12-15T23:54:45.789Z,4.70
2022-12-15T23:57:12.644Z,4.68
2022-12-15T23:59:39.626Z,4.61
